Time;durP1;ratioP1;P1;durP2;ratioP2;P2;SDS_P1;SDS_P2;PMS_P1;PMS_P2;Temp;Humidity;BMP_temperature;BMP_pressure;BME280_temperature;BME280_humidity;BME280_pressure;Samples;Min_cycle;Max_cycle;Signal;HPM_P1;HPM_P2
2024/04/17 00:02:07;;;;;;;1.77;0.85;;;7.20;99.90;;;;;;5323097;26;20020;-61
2024/04/17 00:04:34;;;;;;;1.48;0.93;;;7.20;99.90;;;;;;5330019;26;20751;-60
2024/04/17 00:07:01;;;;;;;1.13;0.77;;;7.10;99.90;;;;;;5325185;26;20001;-60
2024/04/17 00:09:28;;;;;;;1.83;0.80;;;7.20;99.90;;;;;;5326571;26;20023;-61
2024/04/17 00:11:55;;;;;;;0.98;0.80;;;7.10;99.90;;;;;;5333615;26;20005;-60
2024/04/17 00:14:22;;;;;;;2.78;0.70;;;7.20;99.90;;;;;;5319961;26;19998;-60
2024/04/17 00:16:49;;;;;;;2.05;0.70;;;7.10;99.90;;;;;;5318458;26;20009;-60
2024/04/17 00:19:15;;;;;;;1.65;1.00;;;7.20;99.90;;;;;;5368926;21;20098;-62
2024/04/17 00:21:42;;;;;;;0.88;0.50;;;7.20;99.90;;;;;;5373080;26;20650;-61
2024/04/17 00:24:09;;;;;;;2.70;0.82;;;7.20;99.90;;;;;;5358999;26;20004;-61
2024/04/17 00:26:36;;;;;;;1.88;0.77;;;7.20;99.90;;;;;;5378147;26;20008;-61
2024/04/17 00:29:03;;;;;;;0.70;0.70;;;7.20;99.90;;;;;;5375908;26;20004;-60
2024/04/17 00:31:30;;;;;;;1.00;0.90;;;7.20;99.90;;;;;;5370763;26;20012;-61
2024/04/17 00:33:57;;;;;;;1.88;1.05;;;7.20;99.90;;;;;;5374965;26;20097;-61
2024/04/17 00:36:25;;;;;;;2.55;0.88;;;7.20;99.90;;;;;;5361975;26;20004;-62
2024/04/17 00:38:52;;;;;;;1.50;0.93;;;7.20;99.90;;;;;;5368703;26;20460;-61
2024/04/17 00:41:19;;;;;;;0.90;0.90;;;7.30;99.90;;;;;;5378164;26;20345;-61
2024/04/17 00:43:46;;;;;;;1.77;1.00;;;7.20;99.90;;;;;;5370017;26;20035;-61
2024/04/17 00:46:13;;;;;;;3.70;0.90;;;7.20;99.90;;;;;;5366894;26;20011;-61
2024/04/17 00:48:40;;;;;;;1.27;0.95;;;7.30;99.90;;;;;;5361587;26;20004;-61
2024/04/17 00:51:07;;;;;;;1.88;1.02;;;7.30;99.90;;;;;;5367274;26;19997;-62
2024/04/17 00:53:35;;;;;;;1.02;1.00;;;7.30;99.90;;;;;;5366554;26;20005;-61
2024/04/17 00:56:02;;;;;;;1.33;1.20;;;7.20;99.90;;;;;;5368782;26;20344;-61
2024/04/17 00:58:29;;;;;;;1.00;0.90;;;7.20;99.90;;;;;;5370079;26;20016;-60
2024/04/17 01:00:56;;;;;;;1.65;1.10;;;7.10;99.90;;;;;;5372426;26;20477;-62
2024/04/17 01:03:23;;;;;;;3.45;1.25;;;7.10;99.90;;;;;;5344839;26;20020;-61
2024/04/17 01:05:50;;;;;;;2.03;0.98;;;7.10;99.90;;;;;;5361739;26;20036;-61
2024/04/17 01:08:17;;;;;;;2.50;0.90;;;7.10;99.90;;;;;;5373545;26;20398;-62
2024/04/17 01:10:44;;;;;;;1.10;1.00;;;7.10;99.90;;;;;;5376357;26;20004;-61
2024/04/17 01:13:11;;;;;;;3.05;1.40;;;7.10;99.90;;;;;;5375702;26;20004;-62
2024/04/17 01:15:38;;;;;;;1.90;1.17;;;7.10;99.90;;;;;;5376106;26;20007;-61
2024/04/17 01:18:05;;;;;;;1.52;1.17;;;7.10;99.90;;;;;;5359532;26;20008;-61
2024/04/17 01:20:32;;;;;;;4.63;2.03;;;7.20;99.90;;;;;;5344970;26;20008;-61
2024/04/17 01:22:59;;;;;;;1.95;1.52;;;7.20;99.90;;;;;;5368099;26;20078;-61
2024/04/17 01:25:26;;;;;;;3.10;1.05;;;7.20;99.90;;;;;;5365582;26;19996;-61
2024/04/17 01:27:53;;;;;;;2.08;1.30;;;7.20;99.90;;;;;;5376615;26;20493;-62
2024/04/17 01:30:20;;;;;;;1.90;1.23;;;7.20;99.90;;;;;;5361772;26;20445;-62
2024/04/17 01:32:46;;;;;;;1.40;1.10;;;7.10;99.90;;;;;;5378488;26;20004;-61
2024/04/17 01:35:13;;;;;;;1.90;1.40;;;7.10;99.90;;;;;;5370193;26;20030;-61
2024/04/17 01:37:40;;;;;;;2.47;1.40;;;7.20;99.90;;;;;;5369102;26;20000;-61
2024/04/17 01:40:08;;;;;;;1.38;1.25;;;7.20;99.90;;;;;;5367361;26;20005;-60
2024/04/17 01:42:34;;;;;;;2.53;1.00;;;7.20;99.90;;;;;;5367794;26;21745;-60
2024/04/17 01:45:01;;;;;;;2.45;1.20;;;7.20;99.90;;;;;;5372506;26;19996;-61
2024/04/17 01:47:28;;;;;;;2.30;1.05;;;7.20;99.90;;;;;;5366762;26;20004;-60
2024/04/17 01:49:57;;;;;;;2.05;1.15;;;7.20;99.90;;;;;;5368919;26;20000;-61
2024/04/17 01:52:24;;;;;;;1.92;0.95;;;7.20;99.90;;;;;;5371653;26;20004;-61
2024/04/17 01:54:50;;;;;;;2.40;1.25;;;7.10;99.90;;;;;;5373986;26;20321;-61
2024/04/17 01:57:17;;;;;;;3.90;1.33;;;7.10;99.90;;;;;;5369804;26;20005;-61
2024/04/17 01:59:44;;;;;;;1.88;1.20;;;7.10;99.90;;;;;;5375155;26;20004;-61
2024/04/17 02:02:11;;;;;;;4.00;1.40;;;7.10;99.90;;;;;;5361250;26;20011;-60
2024/04/17 02:04:37;;;;;;;2.00;1.20;;;7.00;99.90;;;;;;5371379;26;20008;-60
2024/04/17 02:07:04;;;;;;;1.35;0.93;;;7.00;99.90;;;;;;5369906;26;20044;-61
2024/04/17 02:09:31;;;;;;;1.83;1.20;;;7.00;99.90;;;;;;5361777;26;20027;-61
2024/04/17 02:11:59;;;;;;;1.63;1.10;;;7.00;99.90;;;;;;5341245;26;20004;-61
2024/04/17 02:14:25;;;;;;;1.40;1.20;;;7.00;99.90;;;;;;5368724;26;20019;-61
2024/04/17 02:16:52;;;;;;;2.05;1.10;;;6.90;99.90;;;;;;5343817;26;20357;-61
2024/04/17 02:19:19;;;;;;;1.05;0.88;;;6.90;99.90;;;;;;5370119;26;20013;-61
2024/04/17 02:21:46;;;;;;;1.48;1.00;;;6.90;99.90;;;;;;5365330;26;20379;-61
2024/04/17 02:24:13;;;;;;;1.38;1.20;;;6.90;99.90;;;;;;5368911;26;20054;-61
2024/04/17 02:26:40;;;;;;;2.50;1.20;;;6.90;99.90;;;;;;5369978;26;20019;-60
2024/04/17 02:29:06;;;;;;;2.75;1.20;;;6.90;99.90;;;;;;5366621;26;20004;-61
2024/04/17 02:31:33;;;;;;;2.50;1.08;;;7.00;99.90;;;;;;5359778;26;20532;-61
2024/04/17 02:34:00;;;;;;;4.75;1.20;;;7.00;99.90;;;;;;5362592;26;20082;-59
2024/04/17 02:36:27;;;;;;;1.70;1.20;;;7.00;99.90;;;;;;5364902;26;20710;-60
2024/04/17 02:38:54;;;;;;;1.70;1.17;;;7.00;99.90;;;;;;5371348;26;20103;-61
2024/04/17 02:41:20;;;;;;;1.88;1.15;;;7.00;99.90;;;;;;5368928;26;20318;-61
2024/04/17 02:43:47;;;;;;;3.10;1.23;;;7.00;99.90;;;;;;5377556;26;20014;-59
2024/04/17 02:46:14;;;;;;;2.88;1.23;;;7.10;99.90;;;;;;5368729;26;20437;-59
2024/04/17 02:48:41;;;;;;;1.38;0.98;;;7.10;99.90;;;;;;5364997;26;20144;-60
2024/04/17 02:51:08;;;;;;;2.88;1.02;;;7.10;99.90;;;;;;5370238;26;20000;-60
2024/04/17 02:53:35;;;;;;;1.05;0.95;;;7.10;99.90;;;;;;5371939;26;21785;-61
2024/04/17 02:56:02;;;;;;;1.63;1.20;;;7.10;99.90;;;;;;5364341;26;20004;-59
2024/04/17 02:58:28;;;;;;;1.08;0.98;;;7.10;99.90;;;;;;5368387;26;20001;-61
2024/04/17 03:00:55;;;;;;;1.08;1.00;;;7.10;99.90;;;;;;5373611;26;20004;-60
2024/04/17 03:03:22;;;;;;;0.90;0.88;;;7.00;99.90;;;;;;5365575;26;20333;-61
2024/04/17 03:05:49;;;;;;;1.85;1.02;;;7.00;99.90;;;;;;5337531;26;20044;-60
2024/04/17 03:08:16;;;;;;;2.35;1.23;;;7.00;99.90;;;;;;5357970;26;20004;-60
2024/04/17 03:10:43;;;;;;;3.45;1.08;;;6.90;99.90;;;;;;5362753;26;20012;-59
2024/04/17 03:13:09;;;;;;;1.25;1.02;;;6.90;99.90;;;;;;5369769;26;20975;-60
2024/04/17 03:15:36;;;;;;;2.30;1.10;;;6.90;99.90;;;;;;5367932;26;20019;-60
2024/04/17 03:18:03;;;;;;;2.47;0.90;;;7.00;99.90;;;;;;5353346;26;20008;-59
2024/04/17 03:20:31;;;;;;;1.42;0.90;;;7.00;99.90;;;;;;5358981;26;20008;-61
2024/04/17 03:22:58;;;;;;;1.88;0.93;;;7.00;99.90;;;;;;5374716;26;20073;-60
2024/04/17 03:25:25;;;;;;;0.80;0.80;;;6.90;99.90;;;;;;5366932;26;20090;-59
2024/04/17 03:27:51;;;;;;;1.20;0.98;;;7.00;99.90;;;;;;5369859;26;20004;-60
2024/04/17 03:30:18;;;;;;;1.35;1.00;;;7.00;99.90;;;;;;5361681;26;20017;-61
2024/04/17 03:32:45;;;;;;;1.77;1.23;;;7.00;99.90;;;;;;5362213;26;20001;-59
2024/04/17 03:35:12;;;;;;;3.05;1.50;;;6.90;99.90;;;;;;5361746;26;20341;-58
2024/04/17 03:37:39;;;;;;;2.65;1.30;;;6.90;99.90;;;;;;5369089;26;19996;-58
2024/04/17 03:40:07;;;;;;;2.08;1.35;;;7.00;99.90;;;;;;5366266;26;20005;-59
2024/04/17 03:42:34;;;;;;;1.40;0.98;;;6.90;99.90;;;;;;5366318;26;19996;-62
2024/04/17 03:45:01;;;;;;;3.47;1.20;;;6.90;99.90;;;;;;5373453;26;20001;-61
2024/04/17 03:47:28;;;;;;;2.33;1.30;;;6.90;99.90;;;;;;5365509;26;20341;-59
2024/04/17 03:50:04;;;;;;;2.83;1.30;;;6.90;99.90;;;;;;5365922;26;20019;-60
2024/04/17 03:52:31;;;;;;;2.03;1.40;;;6.90;99.90;;;;;;5357794;26;19996;-61
2024/04/17 03:54:58;;;;;;;2.22;1.38;;;6.90;99.90;;;;;;5366439;26;20390;-56
2024/04/17 03:57:30;;;;;;;1.98;1.35;;;6.90;99.90;;;;;;5368039;26;20001;-61
2024/04/17 03:59:57;;;;;;;2.75;1.33;;;6.90;99.90;;;;;;5368365;26;20004;-57
2024/04/17 04:02:24;;;;;;;2.47;1.15;;;6.90;99.90;;;;;;5368692;26;20005;-60
2024/04/17 04:04:51;;;;;;;4.72;2.53;;;6.90;99.90;;;;;;5372075;26;20590;-60
2024/04/17 04:07:17;;;;;;;4.72;1.50;;;6.90;99.90;;;;;;5364897;26;20028;-61
2024/04/17 04:09:44;;;;;;;3.17;1.42;;;6.80;99.90;;;;;;5367733;26;20011;-61
2024/04/17 04:12:11;;;;;;;2.05;1.40;;;6.70;99.90;;;;;;5364505;26;20349;-61
2024/04/17 04:14:38;;;;;;;1.08;1.00;;;6.70;99.90;;;;;;5366156;26;20027;-61
2024/04/17 04:17:05;;;;;;;3.17;1.50;;;6.70;99.90;;;;;;5364465;26;20063;-59
2024/04/17 04:19:31;;;;;;;1.40;1.30;;;6.80;99.90;;;;;;5369405;26;19996;-59
2024/04/17 04:21:58;;;;;;;1.50;1.30;;;6.80;99.90;;;;;;5370248;26;20369;-61
2024/04/17 04:24:25;;;;;;;3.30;1.50;;;6.90;99.90;;;;;;5364988;26;20044;-61
2024/04/17 04:26:52;;;;;;;1.73;1.30;;;6.90;99.90;;;;;;5368094;26;20004;-61
2024/04/17 04:29:19;;;;;;;2.65;1.33;;;6.90;99.90;;;;;;5364439;26;20520;-61
2024/04/17 04:31:46;;;;;;;1.98;1.30;;;6.90;99.90;;;;;;5363085;26;20020;-61
2024/04/17 04:34:12;;;;;;;1.42;1.23;;;7.00;99.90;;;;;;5359363;26;20326;-60
2024/04/17 04:36:39;;;;;;;3.10;2.10;;;7.00;99.90;;;;;;5369139;26;20012;-61
2024/04/17 04:39:06;;;;;;;2.17;1.40;;;7.00;99.90;;;;;;5358703;26;20007;-61
2024/04/17 04:41:33;;;;;;;3.45;1.10;;;7.10;99.90;;;;;;5361019;26;20001;-61
2024/04/17 04:44:00;;;;;;;2.92;1.27;;;7.00;99.90;;;;;;5369100;26;20416;-61
2024/04/17 04:46:27;;;;;;;2.03;1.20;;;7.10;99.90;;;;;;5362614;26;20085;-61
2024/04/17 04:48:53;;;;;;;1.30;1.20;;;7.10;99.90;;;;;;5362653;26;20359;-61
2024/04/17 04:51:20;;;;;;;1.27;1.17;;;7.00;99.90;;;;;;5357425;26;20082;-61
2024/04/17 04:53:47;;;;;;;3.65;2.40;;;7.00;99.90;;;;;;5356251;26;20024;-61
2024/04/17 04:56:14;;;;;;;1.98;1.33;;;7.00;99.90;;;;;;5371686;26;20012;-61
2024/04/17 04:58:42;;;;;;;1.45;1.10;;;7.00;99.90;;;;;;5366180;26;20662;-61
2024/04/17 05:01:09;;;;;;;4.28;1.75;;;7.00;99.90;;;;;;5361420;26;20442;-59
2024/04/17 05:03:36;;;;;;;2.35;1.50;;;7.00;99.90;;;;;;5336134;26;20403;-61
2024/04/17 05:06:03;;;;;;;2.78;1.58;;;7.00;99.90;;;;;;5350958;26;20017;-61
2024/04/17 05:08:30;;;;;;;3.42;2.88;;;7.00;99.90;;;;;;5367639;26;20015;-61
2024/04/17 05:10:56;;;;;;;2.20;2.00;;;7.00;99.90;;;;;;5369502;26;20345;-61
2024/04/17 05:13:23;;;;;;;3.85;1.42;;;7.00;99.90;;;;;;5361520;26;20015;-60
2024/04/17 05:15:50;;;;;;;1.52;1.13;;;7.00;99.90;;;;;;5370447;26;20000;-60
2024/04/17 05:18:17;;;;;;;4.65;1.67;;;7.10;99.90;;;;;;5366817;26;20020;-61
2024/04/17 05:20:44;;;;;;;1.95;1.40;;;7.00;99.90;;;;;;5358604;26;20012;-63
2024/04/17 05:23:11;;;;;;;3.25;1.30;;;7.10;99.90;;;;;;5365145;26;20014;-60
2024/04/17 05:25:39;;;;;;;2.28;1.52;;;7.10;99.90;;;;;;5369747;26;20086;-61
2024/04/17 05:28:06;;;;;;;2.08;1.60;;;7.10;99.90;;;;;;5364915;26;20009;-61
2024/04/17 05:30:33;;;;;;;3.33;1.65;;;7.10;99.90;;;;;;5364082;26;19997;-60
2024/04/17 05:33:00;;;;;;;2.33;1.38;;;7.20;99.90;;;;;;5373881;26;20372;-61
2024/04/17 05:35:27;;;;;;;3.58;1.70;;;7.10;99.90;;;;;;5367528;26;19997;-60
2024/04/17 05:37:54;;;;;;;1.98;1.63;;;7.10;99.90;;;;;;5358641;26;20015;-60
2024/04/17 05:40:21;;;;;;;2.00;1.80;;;7.10;99.90;;;;;;5377545;26;20004;-60
2024/04/17 05:42:47;;;;;;;2.70;1.83;;;7.10;99.90;;;;;;5371521;26;20032;-61
2024/04/17 05:45:14;;;;;;;2.33;2.00;;;7.20;99.90;;;;;;5367801;26;20499;-61
2024/04/17 05:47:41;;;;;;;2.60;2.22;;;7.10;99.90;;;;;;5360635;26;20000;-60
2024/04/17 05:50:08;;;;;;;2.25;1.70;;;7.20;99.90;;;;;;5357542;26;20035;-61
2024/04/17 05:52:35;;;;;;;4.20;2.20;;;7.10;99.90;;;;;;5343267;26;20032;-59
2024/04/17 05:55:03;;;;;;;1.75;1.52;;;7.20;99.90;;;;;;5363496;26;20517;-61
2024/04/17 05:57:29;;;;;;;3.75;1.70;;;7.20;99.90;;;;;;5365672;26;20001;-61
2024/04/17 05:59:56;;;;;;;3.47;1.48;;;7.10;99.90;;;;;;5365510;26;20000;-60
2024/04/17 06:02:23;;;;;;;3.42;2.20;;;7.10;99.90;;;;;;5356625;26;20589;-59
2024/04/17 06:04:50;;;;;;;3.17;2.60;;;7.10;99.90;;;;;;5364987;26;20018;-59
2024/04/17 06:07:17;;;;;;;6.78;4.25;;;7.20;99.90;;;;;;5363207;26;20813;-59
2024/04/17 06:09:44;;;;;;;6.85;4.95;;;7.20;99.90;;;;;;5366837;26;20000;-61
2024/04/17 06:12:11;;;;;;;7.18;3.10;;;7.20;99.90;;;;;;5336080;26;20015;-60
2024/04/17 06:14:38;;;;;;;3.38;2.00;;;7.30;99.90;;;;;;5368436;26;20017;-61
2024/04/17 06:17:05;;;;;;;1.50;1.40;;;7.30;99.90;;;;;;5368549;26;20004;-61
2024/04/17 06:19:32;;;;;;;2.65;1.42;;;7.40;99.90;;;;;;5389868;21;20016;-60
2024/04/17 06:21:59;;;;;;;2.22;1.45;;;7.40;99.90;;;;;;5367920;26;20012;-62
2024/04/17 06:24:26;;;;;;;1.50;1.23;;;7.50;99.90;;;;;;5370705;26;20000;-62
2024/04/17 06:26:53;;;;;;;2.45;1.30;;;7.50;99.90;;;;;;5388305;26;20004;-62
2024/04/17 06:29:20;;;;;;;1.83;1.30;;;7.50;99.90;;;;;;5360457;26;20019;-62
2024/04/17 06:31:47;;;;;;;1.30;1.20;;;7.50;99.90;;;;;;5341437;26;20012;-61
2024/04/17 06:34:13;;;;;;;2.25;1.23;;;7.50;99.90;;;;;;5339919;26;20011;-62
2024/04/17 06:36:41;;;;;;;1.77;1.23;;;7.50;99.90;;;;;;5372019;26;20322;-62
2024/04/17 06:39:07;;;;;;;2.70;2.03;;;7.50;99.90;;;;;;5372080;26;20329;-61
2024/04/17 06:41:34;;;;;;;2.55;1.45;;;7.60;99.90;;;;;;5360559;26;20008;-61
2024/04/17 06:44:17;;;;;;;2.30;1.40;;;7.60;99.90;;;;;;5360688;26;20004;-62
2024/04/17 06:46:44;;;;;;;1.30;1.20;;;7.60;99.90;;;;;;5365880;26;20082;-60
2024/04/17 06:49:12;;;;;;;2.53;1.50;;;7.50;99.90;;;;;;5364187;26;20008;-62
2024/04/17 06:51:39;;;;;;;3.53;1.30;;;7.50;99.90;;;;;;5370219;26;20004;-61
2024/04/17 06:54:05;;;;;;;2.72;1.63;;;7.40;99.90;;;;;;5369752;26;20011;-62
2024/04/17 06:56:32;;;;;;;1.35;1.23;;;7.40;99.90;;;;;;5339723;26;20098;-62
2024/04/17 06:58:59;;;;;;;1.70;1.27;;;7.30;99.90;;;;;;5363305;26;20068;-61
2024/04/17 07:01:28;;;;;;;1.55;1.27;;;7.40;99.90;;;;;;5365508;26;20481;-62
2024/04/17 07:03:55;;;;;;;1.50;1.20;;;7.40;99.90;;;;;;5368257;26;20019;-62
2024/04/17 07:06:22;;;;;;;1.50;1.23;;;7.40;99.90;;;;;;5365227;26;20005;-62
2024/04/17 07:08:50;;;;;;;2.92;1.45;;;7.50;99.90;;;;;;5367194;26;20011;-62
2024/04/17 07:11:17;;;;;;;2.25;1.45;;;7.50;99.90;;;;;;5368322;26;20016;-62
2024/04/17 07:13:44;;;;;;;1.70;1.50;;;7.50;99.90;;;;;;5367596;26;20018;-61
2024/04/17 07:16:10;;;;;;;2.63;1.90;;;7.60;99.90;;;;;;5354633;26;20022;-62
2024/04/17 07:18:37;;;;;;;3.25;2.22;;;7.70;99.90;;;;;;5356254;26;20069;-61
2024/04/17 07:21:04;;;;;;;3.40;1.90;;;7.80;99.90;;;;;;5361009;26;20441;-62
2024/04/17 07:23:32;;;;;;;3.72;1.77;;;7.90;99.90;;;;;;5367692;26;20232;-60
2024/04/17 07:25:58;;;;;;;3.03;1.75;;;8.00;99.90;;;;;;5366554;26;20008;-61
2024/04/17 07:28:25;;;;;;;1.95;1.60;;;8.10;99.90;;;;;;5370275;26;20471;-62
2024/04/17 07:30:52;;;;;;;2.40;1.88;;;8.10;99.90;;;;;;5368250;26;20017;-62
2024/04/17 07:33:19;;;;;;;1.90;1.70;;;8.20;99.90;;;;;;5364460;26;20000;-61
2024/04/17 07:35:46;;;;;;;2.35;2.10;;;8.10;99.90;;;;;;5367257;26;19996;-62
2024/04/17 07:38:13;;;;;;;4.03;2.50;;;8.10;99.90;;;;;;5333463;26;20482;-61
2024/04/17 07:40:40;;;;;;;5.93;3.25;;;8.10;99.90;;;;;;5365720;26;19997;-62
2024/04/17 07:43:07;;;;;;;6.55;2.20;;;8.00;99.90;;;;;;5362933;26;20361;-61
2024/04/17 07:45:34;;;;;;;2.97;2.38;;;8.10;99.90;;;;;;5373561;26;20001;-62
2024/04/17 07:48:00;;;;;;;2.95;1.98;;;8.20;99.90;;;;;;5353825;26;20442;-62
2024/04/17 07:50:32;;;;;;;4.75;2.00;;;8.40;99.90;;;;;;5363493;26;20023;-60
2024/04/17 07:52:59;;;;;;;1.70;1.60;;;8.60;99.90;;;;;;5364265;26;20005;-60
2024/04/17 07:55:26;;;;;;;2.35;1.33;;;8.70;99.90;;;;;;5360309;26;20008;-61
2024/04/17 07:57:53;;;;;;;3.97;1.90;;;8.80;99.90;;;;;;5365824;26;20004;-59
2024/04/17 08:00:19;;;;;;;1.45;1.20;;;8.90;99.90;;;;;;5365328;26;20001;-62
2024/04/17 08:02:47;;;;;;;1.10;0.80;;;8.80;99.90;;;;;;5362740;26;20069;-60
2024/04/17 08:05:14;;;;;;;3.38;1.10;;;8.60;99.90;;;;;;5366208;26;20478;-62
2024/04/17 08:07:41;;;;;;;2.92;1.30;;;8.40;99.90;;;;;;5361006;26;20004;-59
2024/04/17 08:10:08;;;;;;;1.10;0.88;;;8.40;99.90;;;;;;5370162;26;20081;-62
2024/04/17 08:12:36;;;;;;;1.42;0.95;;;8.40;99.90;;;;;;5370389;26;20047;-61
2024/04/17 08:15:03;;;;;;;1.05;0.82;;;8.30;99.90;;;;;;5365859;26;20011;-62
2024/04/17 08:17:30;;;;;;;2.78;1.00;;;8.30;99.90;;;;;;5356160;26;20488;-62
2024/04/17 08:19:58;;;;;;;2.05;1.00;;;8.40;99.90;;;;;;5370150;26;20023;-62
2024/04/17 08:22:25;;;;;;;3.75;1.30;;;8.50;99.90;;;;;;5354338;26;20004;-62
2024/04/17 08:24:52;;;;;;;4.30;1.90;;;8.60;99.90;;;;;;5359654;26;20001;-62
2024/04/17 08:27:19;;;;;;;1.08;0.98;;;8.70;99.90;;;;;;5360635;26;20009;-62
2024/04/17 08:29:46;;;;;;;3.50;1.10;;;8.70;99.90;;;;;;5360031;26;20463;-60
2024/04/17 08:32:13;;;;;;;1.83;1.20;;;8.80;99.90;;;;;;5365735;26;20005;-62
2024/04/17 08:34:39;;;;;;;1.75;1.08;;;8.60;99.90;;;;;;5366077;26;20012;-62
2024/04/17 08:37:06;;;;;;;2.15;1.48;;;8.50;99.90;;;;;;5372195;26;20022;-62
2024/04/17 08:39:33;;;;;;;2.47;1.45;;;8.60;99.90;;;;;;5364516;26;20332;-62
2024/04/17 08:42:05;;;;;;;2.85;1.20;;;8.70;99.90;;;;;;5361194;26;20004;-62
2024/04/17 08:44:37;;;;;;;1.38;1.27;;;8.60;99.90;;;;;;5362454;26;19997;-62
2024/04/17 08:47:05;;;;;;;1.77;1.30;;;8.60;99.90;;;;;;5362206;26;20050;-62
2024/04/17 08:49:38;;;;;;;3.50;1.70;;;8.60;99.90;;;;;;5361384;26;20016;-62
2024/04/17 08:52:05;;;;;;;;;;;8.50;99.90;;;;;;5363539;26;20040;-62
2024/04/17 08:54:33;;;;;;;3.90;1.95;;;8.40;99.90;;;;;;5363401;26;19925;-62
2024/04/17 08:57:00;;;;;;;3.72;1.95;;;8.40;99.90;;;;;;5363198;26;19997;-62
2024/04/17 08:59:27;;;;;;;2.97;1.70;;;8.40;99.90;;;;;;5365703;26;20009;-62
2024/04/17 09:01:55;;;;;;;2.78;1.80;;;8.40;99.90;;;;;;5368404;26;20391;-62
2024/04/17 09:04:23;;;;;;;2.63;1.80;;;8.50;99.90;;;;;;5364338;26;20012;-62
2024/04/17 09:06:51;;;;;;;4.93;2.10;;;8.50;99.90;;;;;;5367669;26;19996;-62
2024/04/17 09:09:19;;;;;;;4.00;2.50;;;8.60;99.90;;;;;;5355624;26;20009;-62
2024/04/17 09:11:46;;;;;;;5.13;2.58;;;8.80;99.90;;;;;;5341775;26;20744;-62
2024/04/17 09:14:19;;;;;;;3.70;2.50;;;9.00;99.90;;;;;;5369589;26;20019;-62
2024/04/17 09:16:46;;;;;;;3.90;2.70;;;9.10;99.90;;;;;;5359674;26;20358;-61
2024/04/17 09:19:13;;;;;;;4.93;2.92;;;9.30;99.90;;;;;;5366415;26;20019;-62
2024/04/17 09:21:40;;;;;;;3.80;2.70;;;9.60;99.90;;;;;;5372945;26;20479;-62
2024/04/17 09:24:07;;;;;;;5.10;2.60;;;9.90;99.90;;;;;;5362992;26;20015;-62
2024/04/17 09:26:35;;;;;;;4.53;2.83;;;10.40;99.90;;;;;;5369600;26;20011;-62
2024/04/17 09:29:02;;;;;;;3.72;2.33;;;10.90;99.90;;;;;;5367437;26;20000;-62
2024/04/17 09:31:29;;;;;;;3.75;1.80;;;11.10;99.90;;;;;;5357030;26;20000;-62
2024/04/17 09:33:56;;;;;;;5.72;2.55;;;11.10;99.90;;;;;;5368053;26;20489;-62
2024/04/17 09:36:24;;;;;;;6.18;2.33;;;11.30;99.90;;;;;;5364190;26;20011;-62
2024/04/17 09:38:51;;;;;;;7.15;2.13;;;11.40;99.90;;;;;;5358615;26;20005;-62
2024/04/17 09:41:20;;;;;;;5.32;2.17;;;10.90;99.90;;;;;;5359312;26;20001;-62
2024/04/17 09:43:49;;;;;;;4.70;2.58;;;10.70;99.90;;;;;;5375576;26;20352;-62
2024/04/17 09:46:16;;;;;;;6.30;2.38;;;10.50;99.90;;;;;;5342559;26;20015;-62
2024/04/17 09:48:49;;;;;;;5.28;2.97;;;10.60;99.90;;;;;;5357630;26;20027;-62
2024/04/17 09:51:20;;;;;;;5.25;2.60;;;10.90;99.90;;;;;;5362549;26;20008;-67
2024/04/17 09:53:58;;;;;;;4.75;2.10;;;11.00;99.90;;;;;;5362878;26;20000;-62
2024/04/17 09:56:26;;;;;;;3.13;2.13;;;11.10;99.90;;;;;;5364101;26;20007;-62
2024/04/17 09:58:54;;;;;;;6.13;2.00;;;11.20;99.90;;;;;;5365681;26;20014;-61
2024/04/17 10:01:36;;;;;;;2.47;1.60;;;11.20;99.90;;;;;;5360387;26;19996;-62
2024/04/17 10:04:05;;;;;;;3.90;1.65;;;11.30;99.90;;;;;;5360922;26;20002;-62
2024/04/17 10:06:38;;;;;;;5.05;1.70;;;11.30;99.90;;;;;;5371911;26;20485;-62
2024/04/17 10:09:08;;;;;;;8.68;1.98;;;10.90;99.90;;;;;;5366931;26;20082;-62
2024/04/17 10:11:37;;;;;;;4.00;1.85;;;10.60;99.90;;;;;;5370826;26;20015;-62
2024/04/17 10:14:10;;;;;;;4.68;1.73;;;10.30;99.90;;;;;;5370306;26;20554;-62
2024/04/17 10:16:37;;;;;;;4.20;1.75;;;10.40;99.90;;;;;;5358357;26;20339;-62
2024/04/17 10:19:05;;;;;;;4.65;1.25;;;10.40;99.90;;;;;;5358436;26;20358;-62
2024/04/17 10:21:36;;;;;;;3.97;1.00;;;10.60;99.90;;;;;;5361272;26;20008;-62
2024/04/17 10:24:10;;;;;;;5.32;1.30;;;10.80;99.90;;;;;;5363776;26;20004;-62
2024/04/17 10:26:42;;;;;;;6.00;1.50;;;10.90;99.90;;;;;;5375373;26;20001;-59
2024/04/17 10:29:25;;;;;;;2.00;1.00;;;11.20;99.90;;;;;;5365141;26;20001;-62
2024/04/17 10:31:55;;;;;;;4.30;1.40;;;11.30;99.90;;;;;;5337828;26;20000;-61
2024/04/17 10:34:23;;;;;;;5.32;1.50;;;11.40;99.90;;;;;;5369919;26;20011;-62
2024/04/17 10:37:01;;;;;;;2.00;1.30;;;11.50;99.90;;;;;;5367393;26;20091;-62
2024/04/17 10:39:29;;;;;;;4.90;1.50;;;11.90;99.90;;;;;;5367688;26;20019;-62
2024/04/17 10:42:00;;;;;;;4.65;1.58;;;12.30;99.90;;;;;;5358891;26;20065;-62
2024/04/17 10:44:27;;;;;;;5.55;3.08;;;12.20;99.90;;;;;;5374673;26;20000;-62
2024/04/17 10:47:03;;;;;;;9.25;2.60;;;11.50;99.90;;;;;;5365254;26;20015;-60
2024/04/17 10:49:39;;;;;;;4.68;1.85;;;11.10;99.90;;;;;;5365324;26;20016;-62
2024/04/17 10:52:06;;;;;;;5.32;1.70;;;11.20;99.90;;;;;;5357677;26;20072;-62
2024/04/17 10:54:37;;;;;;;5.20;1.90;;;11.00;99.90;;;;;;5363612;26;20033;-62
2024/04/17 10:57:06;;;;;;;3.72;2.17;;;11.10;99.90;;;;;;5358039;26;20008;-62
2024/04/17 10:59:32;;;;;;;5.32;1.73;;;10.90;99.90;;;;;;5361626;26;20380;-61
2024/04/17 11:01:59;;;;;;;4.20;1.60;;;11.00;99.90;;;;;;5358517;26;20011;-62
2024/04/17 11:04:26;;;;;;;3.80;1.40;;;11.30;99.90;;;;;;5366498;26;20012;-62
2024/04/17 11:06:53;;;;;;;4.80;1.83;;;11.40;99.90;;;;;;5360592;26;20135;-60
2024/04/17 11:09:20;;;;;;;4.60;1.63;;;11.00;99.90;;;;;;5366347;26;20000;-62
2024/04/17 11:11:49;;;;;;;1.92;1.23;;;11.00;99.90;;;;;;5362143;26;20001;-61
2024/04/17 11:14:16;;;;;;;4.13;1.73;;;10.80;99.90;;;;;;5368571;26;20033;-62
2024/04/17 11:16:43;;;;;;;6.72;2.08;;;10.80;99.90;;;;;;5359079;26;20001;-62
2024/04/17 11:19:14;;;;;;;4.90;1.48;;;10.90;99.90;;;;;;5363228;26;20445;-61
2024/04/17 11:21:43;;;;;;;5.32;1.75;;;11.30;99.90;;;;;;5370217;26;20007;-62
2024/04/17 11:24:20;;;;;;;3.20;1.35;;;11.50;99.90;;;;;;5360520;26;20837;-61
2024/04/17 11:26:47;;;;;;;5.38;1.40;;;11.50;99.90;;;;;;5363538;26;20007;-62
2024/04/17 11:29:19;;;;;;;3.53;1.40;;;11.50;99.90;;;;;;5362442;26;20020;-60
2024/04/17 11:32:02;;;;;;;5.78;1.30;;;11.50;99.90;;;;;;5345259;26;20015;-62
2024/04/17 11:34:29;;;;;;;6.97;1.20;;;11.60;99.90;;;;;;5367716;26;20461;-62
2024/04/17 11:37:03;;;;;;;7.65;1.48;;;11.80;99.90;;;;;;5361784;26;19997;-62
2024/04/17 11:39:31;;;;;;;4.57;1.65;;;11.80;99.90;;;;;;5355662;26;20004;-62
2024/04/17 11:42:04;;;;;;;8.40;1.23;;;12.00;99.90;;;;;;5365550;26;20500;-61
2024/04/17 11:44:38;;;;;;;;;;;12.40;99.90;;;;;;5359054;26;20050;-62
2024/04/17 11:47:09;;;;;;;4.32;1.30;;;12.80;99.90;;;;;;5368611;26;19936;-62
2024/04/17 11:49:36;;;;;;;2.47;1.02;;;13.10;99.90;;;;;;5363885;26;20052;-61
2024/04/17 11:52:11;;;;;;;6.25;1.40;;;13.10;99.90;;;;;;5366793;26;20461;-62
2024/04/17 11:54:39;;;;;;;3.22;0.90;;;12.90;99.90;;;;;;5361254;26;19997;-62
2024/04/17 11:57:06;;;;;;;4.30;1.20;;;13.20;99.90;;;;;;5368573;26;20036;-62
2024/04/17 11:59:38;;;;;;;2.47;1.10;;;13.00;99.90;;;;;;5362787;26;20012;-62
2024/04/17 12:02:05;;;;;;;2.38;1.00;;;13.10;99.90;;;;;;5365049;26;20480;-62
2024/04/17 12:04:32;;;;;;;3.38;1.08;;;13.10;99.90;;;;;;5358599;26;20019;-61
2024/04/17 12:07:00;;;;;;;4.93;1.38;;;13.20;99.90;;;;;;5357218;26;19996;-61
2024/04/17 12:09:29;;;;;;;3.70;1.40;;;13.40;99.90;;;;;;5367357;26;20054;-62
2024/04/17 12:11:56;;;;;;;3.83;1.27;;;13.50;99.90;;;;;;5369438;26;20012;-62
2024/04/17 12:14:23;;;;;;;4.55;1.08;;;13.40;99.90;;;;;;5365194;26;20242;-62
2024/04/17 12:16:50;;;;;;;2.22;0.90;;;13.30;99.90;;;;;;5354226;26;20016;-62
2024/04/17 12:19:17;;;;;;;3.30;1.42;;;13.10;99.90;;;;;;5333740;21;20032;-57
2024/04/17 12:21:44;;;;;;;4.72;1.45;;;12.90;99.90;;;;;;5269429;27;20002;-59
2024/04/17 12:24:18;;;;;;;1.60;0.90;;;12.80;99.90;;;;;;5268997;27;20007;-60
2024/04/17 12:26:50;;;;;;;4.38;1.45;;;12.60;99.90;;;;;;5270205;27;19999;-61
2024/04/17 12:29:19;;;;;;;4.43;1.17;;;12.60;99.90;;;;;;5268477;27;20529;-61
2024/04/17 12:31:45;;;;;;;3.75;1.20;;;12.60;99.90;;;;;;5269451;27;20007;-61
2024/04/17 12:34:13;;;;;;;4.00;1.05;;;12.90;99.90;;;;;;5269364;27;20002;-59
2024/04/17 12:36:40;;;;;;;2.25;1.05;;;12.80;99.90;;;;;;5265285;27;20397;-59
2024/04/17 12:39:08;;;;;;;7.03;1.40;;;13.00;99.90;;;;;;5269601;27;19998;-60
2024/04/17 12:41:35;;;;;;;4.53;1.10;;;13.20;99.90;;;;;;5266063;27;20017;-61
2024/04/17 12:44:02;;;;;;;2.55;1.13;;;13.20;99.90;;;;;;5272208;27;20027;-61
2024/04/17 12:46:29;;;;;;;3.92;1.20;;;13.10;99.90;;;;;;5267150;27;20343;-61
2024/04/17 12:48:56;;;;;;;4.40;1.05;;;13.20;99.90;;;;;;5269128;27;20340;-61
2024/04/17 12:51:23;;;;;;;3.72;1.17;;;13.20;99.90;;;;;;5269376;27;20005;-59
2024/04/17 12:53:50;;;;;;;3.65;1.33;;;13.20;99.90;;;;;;5269765;27;19998;-61
2024/04/17 12:56:18;;;;;;;4.00;1.23;;;13.30;99.90;;;;;;5268880;27;20014;-61
2024/04/17 12:58:45;;;;;;;2.97;0.82;;;13.40;99.90;;;;;;5267924;27;19998;-58